createdAt,value
2022-12-01T00:01:51.056Z,99748.13
2022-12-01T00:04:20.044Z,99742.78
2022-12-01T00:06:50.317Z,99749.53
2022-12-01T00:09:48.460Z,99740.88
2022-12-01T00:12:17.329Z,99753.88
2022-12-01T00:14:54.863Z,99759.13
2022-12-01T00:17:24.894Z,99749.56
2022-12-01T00:19:53.764Z,99753.06
2022-12-01T00:22:22.311Z,99759.22
2022-12-01T00:24:51.203Z,99750.53
2022-12-01T00:27:19.890Z,99746.84
2022-12-01T00:29:48.805Z,99757.22
2022-12-01T00:32:17.424Z,99751.94
2022-12-01T00:34:47.751Z,99755.34
2022-12-01T00:37:16.101Z,99760.00
2022-12-01T00:39:44.866Z,99760.91
2022-12-01T00:42:13.711Z,99754.19
2022-12-01T00:44:42.474Z,99754.97
2022-12-01T00:47:10.863Z,99749.56
2022-12-01T00:49:39.605Z,99753.25
2022-12-01T00:52:09.481Z,99752.41
2022-12-01T00:54:38.244Z,99756.94
2022-12-01T00:57:06.936Z,99747.28
2022-12-01T00:59:36.234Z,99751.84
2022-12-01T01:02:05.430Z,99762.75
2022-12-01T01:04:37.216Z,99748.81
2022-12-01T01:07:06.131Z,99748.81
2022-12-01T01:09:36.388Z,99754.25
2022-12-01T01:12:05.164Z,99755.88
2022-12-01T01:14:33.901Z,99764.81
2022-12-01T01:17:03.599Z,99759.84
2022-12-01T01:19:32.513Z,99754.97
2022-12-01T01:22:00.943Z,99767.91
2022-12-01T01:24:29.751Z,99759.16
2022-12-01T01:26:59.845Z,99771.44
2022-12-01T01:29:28.579Z,99754.16
2022-12-01T01:31:56.920Z,99756.72
2022-12-01T01:34:25.676Z,99754.78
2022-12-01T01:36:54.154Z,99751.50
2022-12-01T01:39:22.984Z,99759.97
2022-12-01T01:41:51.492Z,99740.88
2022-12-01T01:44:51.102Z,99751.41
2022-12-01T01:47:24.505Z,99751.84
2022-12-01T01:49:54.780Z,99736.59
2022-12-01T01:52:24.743Z,99752.22
2022-12-01T01:54:56.501Z,99744.81
2022-12-01T01:57:29.713Z,99749.38
2022-12-01T02:00:07.573Z,99751.91
2022-12-01T02:02:44.710Z,99746.66
2022-12-01T02:05:15.782Z,99747.56
2022-12-01T02:07:45.525Z,99753.59
2022-12-01T02:10:22.430Z,99748.47
2022-12-01T02:13:03.447Z,99749.34
2022-12-01T02:15:42.188Z,99746.00
2022-12-01T02:18:24.916Z,99750.19
2022-12-01T02:21:28.759Z,99747.66
2022-12-01T02:24:35.451Z,99748.47
2022-12-01T02:27:13.115Z,99734.75
2022-12-01T02:30:03.267Z,99741.84
2022-12-01T02:32:44.526Z,99738.66
2022-12-01T02:35:19.402Z,99744.25
2022-12-01T02:37:57.442Z,99740.19
2022-12-01T02:40:30.233Z,99741.16
2022-12-01T02:43:04.938Z,99722.81
2022-12-01T02:45:42.099Z,99724.19
2022-12-01T02:48:19.905Z,99741.56
2022-12-01T02:50:49.183Z,99731.19
2022-12-01T02:53:19.932Z,99739.19
2022-12-01T02:55:50.552Z,99738.38
2022-12-01T02:58:19.418Z,99747.03
2022-12-01T03:01:00.400Z,99720.06
2022-12-01T03:03:51.947Z,99739.84
2022-12-01T03:06:31.070Z,99725.25
2022-12-01T03:09:09.926Z,99737.38
2022-12-01T03:11:49.632Z,99740.50
2022-12-01T03:14:27.589Z,99741.63
2022-12-01T03:16:58.947Z,99754.53
2022-12-01T03:19:36.644Z,99748.84
2022-12-01T03:22:09.929Z,99752.94
2022-12-01T03:24:42.199Z,99743.91
2022-12-01T03:27:13.837Z,99754.84
2022-12-01T03:29:46.864Z,99746.00
2022-12-01T03:32:21.570Z,99747.88
2022-12-01T03:34:56.475Z,99743.50
2022-12-01T03:37:31.818Z,99745.19
2022-12-01T03:40:03.578Z,99745.34
2022-12-01T03:42:37.674Z,99736.44
2022-12-01T03:45:10.321Z,99742.88
2022-12-01T03:47:40.566Z,99739.44
2022-12-01T03:50:14.169Z,99742.81
2022-12-01T03:52:50.448Z,99738.56
2022-12-01T03:55:24.169Z,99736.06
2022-12-01T03:57:58.063Z,99737.16
2022-12-01T04:00:27.052Z,99735.09
2022-12-01T04:02:57.614Z,99740.59
2022-12-01T04:05:28.106Z,99738.69
2022-12-01T04:07:56.660Z,99737.84
2022-12-01T04:10:26.065Z,99736.84
2022-12-01T04:12:59.042Z,99736.88
2022-12-01T04:15:28.927Z,99726.50
2022-12-01T04:17:57.248Z,99729.16
2022-12-01T04:20:27.303Z,99722.94
2022-12-01T04:22:55.708Z,99717.69
2022-12-01T04:25:24.494Z,99722.53
2022-12-01T04:27:53.002Z,99726.56
2022-12-01T04:30:21.736Z,99705.44
2022-12-01T04:32:50.169Z,99721.09
2022-12-01T04:35:18.851Z,99728.81
2022-12-01T04:37:48.580Z,99721.78
2022-12-01T04:40:19.021Z,99734.06
2022-12-01T04:42:47.507Z,99725.38
2022-12-01T04:45:16.461Z,99735.69
2022-12-01T04:47:44.811Z,99734.34
2022-12-01T04:50:13.613Z,99742.31
2022-12-01T04:52:41.978Z,99739.78
2022-12-01T04:55:15.282Z,99739.41
2022-12-01T04:57:43.605Z,99744.91
2022-12-01T05:00:14.010Z,99740.22
2022-12-01T05:02:43.727Z,99742.81
2022-12-01T05:05:14.144Z,99741.97
2022-12-01T05:07:42.621Z,99743.78
2022-12-01T05:10:14.308Z,99746.31
2022-12-01T05:12:42.818Z,99739.41
2022-12-01T05:15:11.934Z,99741.28
2022-12-01T05:17:40.534Z,99750.63
2022-12-01T05:20:27.581Z,99748.19
2022-12-01T05:23:08.102Z,99743.97
2022-12-01T05:25:39.294Z,99752.75
2022-12-01T05:28:07.780Z,99747.47
2022-12-01T05:30:36.438Z,99757.88
2022-12-01T05:33:04.953Z,99744.72
2022-12-01T05:35:34.280Z,99742.91
2022-12-01T05:38:07.578Z,99741.00
2022-12-01T05:40:38.749Z,99746.53
2022-12-01T05:43:07.718Z,99744.97
2022-12-01T05:45:36.714Z,99743.50
2022-12-01T05:48:05.650Z,99742.47
2022-12-01T05:50:34.376Z,99750.25
2022-12-01T05:53:02.859Z,99752.19
2022-12-01T05:55:31.603Z,99762.88
2022-12-01T05:58:01.415Z,99763.75
2022-12-01T06:00:30.440Z,99757.66
2022-12-01T06:02:58.847Z,99761.44
2022-12-01T06:05:27.742Z,99761.56
2022-12-01T06:07:56.197Z,99757.09
2022-12-01T06:10:24.918Z,99759.31
2022-12-01T06:12:53.354Z,99757.59
2022-12-01T06:15:23.485Z,99755.50
2022-12-01T06:17:51.937Z,99762.66
2022-12-01T06:20:20.850Z,99755.78
2022-12-01T06:22:49.708Z,99762.13
2022-12-01T06:25:18.626Z,99750.75
2022-12-01T06:27:47.183Z,99765.38
2022-12-01T06:30:16.227Z,99754.97
2022-12-01T06:32:46.210Z,99759.16
2022-12-01T06:35:15.245Z,99763.00
2022-12-01T06:37:43.647Z,99775.41
2022-12-01T06:40:13.581Z,99763.97
2022-12-01T06:42:42.254Z,99767.88
2022-12-01T06:45:12.821Z,99772.31
2022-12-01T06:47:41.824Z,99770.56
2022-12-01T06:50:12.746Z,99768.16
2022-12-01T06:52:41.244Z,99769.13
2022-12-01T06:55:11.253Z,99762.94
2022-12-01T06:57:40.123Z,99770.88
2022-12-01T07:00:11.486Z,99772.44
2022-12-01T07:02:40.548Z,99771.94
2022-12-01T07:05:11.475Z,99772.19
2022-12-01T07:07:41.049Z,99766.13
2022-12-01T07:10:12.324Z,99775.75
2022-12-01T07:12:40.956Z,99773.66
2022-12-01T07:15:10.692Z,99778.00
2022-12-01T07:17:39.357Z,99780.06
2022-12-01T07:20:10.545Z,99773.63
2022-12-01T07:22:43.061Z,99791.91
2022-12-01T07:25:13.461Z,99787.38
2022-12-01T07:27:41.913Z,99782.56
2022-12-01T07:30:11.125Z,99786.75
2022-12-01T07:32:41.025Z,99798.72
2022-12-01T07:35:10.284Z,99790.25
2022-12-01T07:37:40.117Z,99800.72
2022-12-01T07:40:10.335Z,99795.09
2022-12-01T07:42:42.089Z,99784.22
2022-12-01T07:45:11.162Z,99794.56
2022-12-01T07:47:39.819Z,99789.69
2022-12-01T07:50:12.266Z,99793.75
2022-12-01T07:52:42.292Z,99808.44
2022-12-01T07:55:11.258Z,99805.94
2022-12-01T07:57:40.195Z,99803.47
2022-12-01T08:00:10.015Z,99797.34
2022-12-01T08:02:40.631Z,99801.75
2022-12-01T08:05:10.331Z,99792.19
2022-12-01T08:07:38.909Z,99787.03
2022-12-01T08:10:09.932Z,99798.66
2022-12-01T08:12:38.921Z,99797.56
2022-12-01T08:15:08.881Z,99783.69
2022-12-01T08:17:37.403Z,99808.53
2022-12-01T08:20:08.336Z,99802.56
2022-12-01T08:22:36.719Z,99787.88
2022-12-01T08:25:06.397Z,99800.22
2022-12-01T08:27:36.855Z,99805.53
2022-12-01T08:30:06.827Z,99798.47
2022-12-01T08:32:36.132Z,99799.16
2022-12-01T08:35:05.273Z,99802.78
2022-12-01T08:37:33.972Z,99803.50
2022-12-01T08:40:02.681Z,99800.22
2022-12-01T08:42:31.209Z,99805.63
2022-12-01T08:45:01.413Z,99798.88
2022-12-01T08:47:30.311Z,99808.13
2022-12-01T08:49:59.056Z,99818.41
2022-12-01T08:52:27.394Z,99811.69
2022-12-01T08:54:56.174Z,99821.28
2022-12-01T08:57:24.594Z,99818.63
2022-12-01T08:59:53.343Z,99816.19
2022-12-01T09:02:23.459Z,99822.19
2022-12-01T09:04:53.022Z,99817.66
2022-12-01T09:07:26.027Z,99820.47
2022-12-01T09:09:55.319Z,99818.69
2022-12-01T09:12:23.733Z,99814.44
2022-12-01T09:14:53.175Z,99813.66
2022-12-01T09:17:23.640Z,99812.72
2022-12-01T09:19:52.803Z,99813.75
2022-12-01T09:22:21.284Z,99821.50
2022-12-01T09:24:49.965Z,99808.56
2022-12-01T09:27:18.432Z,99819.03
2022-12-01T09:29:47.365Z,99808.47
2022-12-01T09:32:16.131Z,99816.19
2022-12-01T09:34:46.326Z,99806.78
2022-12-01T09:37:14.731Z,99805.09
2022-12-01T09:39:43.469Z,99806.78
2022-12-01T09:42:17.270Z,99804.06
2022-12-01T09:44:51.157Z,99812.00
2022-12-01T09:47:24.083Z,99799.53
2022-12-01T09:50:00.229Z,99808.25
2022-12-01T09:52:41.593Z,99803.81
2022-12-01T09:55:14.248Z,99797.84
2022-12-01T09:57:45.121Z,99804.06
2022-12-01T10:00:17.035Z,99806.56
2022-12-01T10:02:52.945Z,99793.72
2022-12-01T10:05:27.913Z,99799.84
2022-12-01T10:08:00.649Z,99789.31
2022-12-01T10:10:32.467Z,99787.72
2022-12-01T10:13:01.652Z,99794.69
2022-12-01T10:15:40.910Z,99788.53
2022-12-01T10:18:24.609Z,99799.03
2022-12-01T10:21:10.910Z,99791.16
2022-12-01T10:23:52.383Z,99792.09
2022-12-01T10:26:28.466Z,99799.91
2022-12-01T10:29:08.819Z,99799.81
2022-12-01T10:31:48.170Z,99798.88
2022-12-01T10:34:19.485Z,99794.56
2022-12-01T10:36:49.900Z,99791.75
2022-12-01T10:39:21.060Z,99789.28
2022-12-01T10:41:50.994Z,99785.81
2022-12-01T10:44:20.343Z,99795.31
2022-12-01T10:46:53.715Z,99802.19
2022-12-01T10:49:36.370Z,99798.06
2022-12-01T10:52:07.298Z,99806.63
2022-12-01T10:54:38.607Z,99796.00
2022-12-01T10:57:15.110Z,99795.19
2022-12-01T10:59:51.186Z,99786.50
2022-12-01T11:02:23.710Z,99794.22
2022-12-01T11:04:56.072Z,99790.13
2022-12-01T11:07:30.724Z,99798.69
2022-12-01T11:10:18.429Z,99786.63
2022-12-01T11:12:55.346Z,99794.41
2022-12-01T11:15:27.816Z,99780.63
2022-12-01T11:18:02.428Z,99786.00
2022-12-01T11:20:36.877Z,99784.22
2022-12-01T11:23:26.838Z,99786.81
2022-12-01T11:26:02.480Z,99780.91
2022-12-01T11:28:32.360Z,99785.19
2022-12-01T11:31:04.329Z,99789.47
2022-12-01T11:33:40.823Z,99784.22
2022-12-01T11:36:15.935Z,99788.75
2022-12-01T11:38:46.451Z,99775.72
2022-12-01T11:41:29.467Z,99785.31
2022-12-01T11:44:02.054Z,99789.63
2022-12-01T11:46:35.228Z,99786.09
2022-12-01T11:49:04.963Z,99779.19
2022-12-01T11:51:37.618Z,99783.44
2022-12-01T11:54:18.526Z,99780.84
2022-12-01T11:56:56.130Z,99779.91
2022-12-01T11:59:37.601Z,99786.00
2022-12-01T12:02:24.825Z,99780.03
2022-12-01T12:05:10.604Z,99789.56
2022-12-01T12:07:48.610Z,99787.09
2022-12-01T12:10:33.301Z,99792.19
2022-12-01T12:13:30.759Z,99789.47
2022-12-01T12:16:07.958Z,99796.69
2022-12-01T12:18:52.830Z,99788.88
2022-12-01T12:21:32.881Z,99795.84
2022-12-01T12:24:23.573Z,99800.91
2022-12-01T12:27:04.993Z,99795.00
2022-12-01T12:29:50.214Z,99793.22
2022-12-01T12:32:33.711Z,99796.72
2022-12-01T12:35:16.322Z,99796.69
2022-12-01T12:37:55.171Z,99794.78
2022-12-01T12:40:43.848Z,99796.53
2022-12-01T12:43:37.223Z,99786.09
2022-12-01T12:46:09.665Z,99801.63
2022-12-01T12:49:19.372Z,99794.72
2022-12-01T12:51:54.378Z,99794.47
2022-12-01T12:54:28.702Z,99794.72
2022-12-01T12:57:06.198Z,99802.34
2022-12-01T12:59:43.492Z,99810.22
2022-12-01T13:02:17.001Z,99805.00
2022-12-01T13:04:54.971Z,99811.03
2022-12-01T13:07:32.999Z,99806.63
2022-12-01T13:10:10.064Z,99810.00
2022-12-01T13:12:46.682Z,99801.34
2022-12-01T13:15:19.537Z,99805.66
2022-12-01T13:17:52.959Z,99807.31
2022-12-01T13:20:27.769Z,99802.22
2022-12-01T13:22:59.065Z,99803.88
2022-12-01T13:25:31.230Z,99803.81
2022-12-01T13:28:04.159Z,99805.66
2022-12-01T13:30:34.543Z,99801.06
2022-12-01T13:33:05.234Z,99806.31
2022-12-01T13:35:37.314Z,99809.50
2022-12-01T13:38:22.445Z,99811.59
2022-12-01T13:41:10.718Z,99812.44
2022-12-01T13:43:51.233Z,99803.59
2022-12-01T13:46:26.226Z,99806.22
2022-12-01T13:48:57.761Z,99806.03
2022-12-01T13:51:27.515Z,99801.03
2022-12-01T13:54:07.067Z,99807.16
2022-12-01T13:56:39.516Z,99801.94
2022-12-01T13:59:40.855Z,99796.84
2022-12-01T14:02:21.050Z,99803.94
2022-12-01T14:04:50.098Z,99803.66
2022-12-01T14:07:38.779Z,99793.88
2022-12-01T14:10:29.925Z,99801.97
2022-12-01T14:13:03.850Z,99802.84
2022-12-01T14:15:36.761Z,99800.31
2022-12-01T14:18:20.035Z,99805.22
2022-12-01T14:20:49.794Z,99790.63
2022-12-01T14:23:25.355Z,99795.53
2022-12-01T14:26:11.003Z,99787.50
2022-12-01T14:29:19.871Z,99792.00
2022-12-01T14:32:20.319Z,99789.53
2022-12-01T14:34:55.811Z,99793.59
2022-12-01T14:37:28.745Z,99783.28
2022-12-01T14:40:05.430Z,99792.81
2022-12-01T14:42:55.876Z,99791.84
2022-12-01T14:45:29.573Z,99798.06
2022-12-01T14:48:02.817Z,99793.59
2022-12-01T14:50:43.568Z,99790.22
2022-12-01T14:53:23.549Z,99784.06
2022-12-01T14:55:57.544Z,99790.94
2022-12-01T14:58:28.948Z,99789.34
2022-12-01T15:01:08.421Z,99788.50
2022-12-01T15:03:41.585Z,99795.66
2022-12-01T15:06:17.386Z,99787.09
2022-12-01T15:09:04.158Z,99798.22
2022-12-01T15:11:36.915Z,99802.56
2022-12-01T15:14:19.150Z,99805.91
2022-12-01T15:16:48.171Z,99801.72
2022-12-01T15:19:32.102Z,99796.22
2022-12-01T15:22:06.397Z,99803.91
2022-12-01T15:24:35.467Z,99797.00
2022-12-01T15:27:04.540Z,99803.84
2022-12-01T15:29:36.295Z,99809.59
2022-12-01T15:32:08.669Z,99815.59
2022-12-01T15:34:39.271Z,99809.06
2022-12-01T15:37:14.791Z,99809.16
2022-12-01T15:39:46.419Z,99799.38
2022-12-01T15:42:24.146Z,99798.59
2022-12-01T15:45:00.550Z,99794.25
2022-12-01T15:47:39.281Z,99799.47
2022-12-01T15:50:29.558Z,99795.09
2022-12-01T15:53:03.388Z,99796.97
2022-12-01T15:55:34.232Z,99794.25
2022-12-01T15:58:07.896Z,99792.75
2022-12-01T16:00:37.024Z,99796.16
2022-12-01T16:03:06.151Z,99806.47
2022-12-01T16:05:36.952Z,99797.75
2022-12-01T16:08:17.464Z,99806.50
2022-12-01T16:10:46.786Z,99810.91
2022-12-01T16:13:45.099Z,99803.34
2022-12-01T16:16:32.694Z,99806.38
2022-12-01T16:19:05.646Z,99792.56
2022-12-01T16:21:45.476Z,99800.09
2022-12-01T16:24:19.980Z,99806.03
2022-12-01T16:26:51.507Z,99815.66
2022-12-01T16:29:21.876Z,99805.47
2022-12-01T16:32:18.577Z,99813.31
2022-12-01T16:34:47.934Z,99803.31
2022-12-01T16:37:16.986Z,99808.38
2022-12-01T16:39:47.402Z,99802.41
2022-12-01T16:42:18.387Z,99797.84
2022-12-01T16:44:48.154Z,99793.34
2022-12-01T16:47:19.718Z,99807.50
2022-12-01T16:49:48.841Z,99800.44
2022-12-01T16:55:24.416Z,99797.19
2022-12-01T16:57:53.327Z,99808.38
2022-12-01T17:00:22.727Z,99806.50
2022-12-01T17:02:52.848Z,99804.09
2022-12-01T17:05:21.889Z,99803.31
2022-12-01T17:07:50.640Z,99813.47
2022-12-01T17:10:24.047Z,99818.56
2022-12-01T17:12:52.814Z,99818.41
2022-12-01T17:15:21.843Z,99827.03
2022-12-01T17:17:51.371Z,99822.84
2022-12-01T17:20:20.156Z,99827.22
2022-12-01T17:22:48.655Z,99828.00
2022-12-01T17:25:17.512Z,99835.03
2022-12-01T17:27:47.354Z,99829.13
2022-12-01T17:30:16.454Z,99844.75
2022-12-01T17:32:46.585Z,99848.72
2022-12-01T17:35:15.554Z,99842.00
2022-12-01T17:37:44.376Z,99835.16
2022-12-01T17:40:14.929Z,99852.31
2022-12-01T17:42:49.926Z,99843.63
2022-12-01T17:45:20.662Z,99846.31
2022-12-01T17:47:49.212Z,99837.72
2022-12-01T17:50:18.852Z,99846.16
2022-12-01T17:52:47.838Z,99847.25
2022-12-01T17:55:16.947Z,99839.97
2022-12-01T17:57:45.552Z,99841.00
2022-12-01T18:00:16.029Z,99845.44
2022-12-01T18:02:47.740Z,99842.59
2022-12-01T18:05:16.830Z,99846.03
2022-12-01T18:07:45.644Z,99849.25
2022-12-01T18:10:14.490Z,99851.91
2022-12-01T18:12:42.961Z,99845.09
2022-12-01T18:15:12.563Z,99843.34
2022-12-01T18:17:41.334Z,99848.78
2022-12-01T18:20:12.383Z,99837.53
2022-12-01T18:22:40.788Z,99834.31
2022-12-01T18:25:09.979Z,99838.66
2022-12-01T18:27:38.415Z,99835.41
2022-12-01T18:30:08.663Z,99832.00
2022-12-01T18:32:37.229Z,99848.47
2022-12-01T18:35:08.026Z,99850.97
2022-12-01T18:37:37.917Z,99841.69
2022-12-01T18:40:08.215Z,99844.47
2022-12-01T18:42:36.691Z,99846.78
2022-12-01T18:45:05.889Z,99857.56
2022-12-01T18:47:34.444Z,99850.69
2022-12-01T18:50:04.083Z,99850.69
2022-12-01T18:52:35.583Z,99848.09
2022-12-01T18:55:06.372Z,99853.03
2022-12-01T18:57:34.835Z,99850.34
2022-12-01T19:00:04.536Z,99857.13
2022-12-01T19:02:33.648Z,99853.47
2022-12-01T19:05:02.686Z,99863.19
2022-12-01T19:07:31.372Z,99852.75
2022-12-01T19:10:00.233Z,99852.66
2022-12-01T19:12:30.022Z,99859.69
2022-12-01T19:14:58.965Z,99860.69
2022-12-01T19:17:27.473Z,99858.22
2022-12-01T19:19:56.520Z,99858.06
2022-12-01T19:22:25.143Z,99859.75
2022-12-01T19:24:54.249Z,99868.94
2022-12-01T19:27:22.753Z,99865.00
2022-12-01T19:29:53.977Z,99863.94
2022-12-01T19:32:22.972Z,99870.06
2022-12-01T19:34:51.899Z,99867.97
2022-12-01T19:37:20.847Z,99866.31
2022-12-01T19:39:50.071Z,99874.13
2022-12-01T19:42:18.635Z,99875.94
2022-12-01T19:44:47.600Z,99870.88
2022-12-01T19:47:21.906Z,99868.41
2022-12-01T19:49:51.596Z,99874.38
2022-12-01T19:52:20.219Z,99874.34
2022-12-01T19:54:49.617Z,99872.78
2022-12-01T19:57:18.405Z,99879.56
2022-12-01T19:59:47.168Z,99874.47
2022-12-01T20:02:17.001Z,99880.56
2022-12-01T20:04:45.902Z,99880.66
2022-12-01T20:07:14.275Z,99890.22
2022-12-01T20:09:49.628Z,99885.81
2022-12-01T20:12:18.510Z,99887.03
2022-12-01T20:14:47.711Z,99883.28
2022-12-01T20:17:17.736Z,99894.72
2022-12-01T20:19:46.478Z,99885.03
2022-12-01T20:22:15.106Z,99890.22
2022-12-01T20:24:43.976Z,99888.47
2022-12-01T20:27:12.358Z,99888.78
2022-12-01T20:29:41.075Z,99892.84
2022-12-01T20:32:09.786Z,99897.47
2022-12-01T20:34:40.188Z,99894.94
2022-12-01T20:37:08.724Z,99884.69
2022-12-01T20:39:39.909Z,99893.94
2022-12-01T20:42:08.639Z,99895.63
2022-12-01T20:44:37.909Z,99895.56
2022-12-01T20:47:06.478Z,99895.06
2022-12-01T20:49:35.376Z,99901.84
2022-12-01T20:52:06.533Z,99901.09
2022-12-01T20:54:35.487Z,99896.84
2022-12-01T20:57:04.086Z,99896.84
2022-12-01T20:59:32.789Z,99897.56
2022-12-01T21:02:01.242Z,99900.25
2022-12-01T21:04:30.193Z,99895.81
2022-12-01T21:06:59.266Z,99896.47
2022-12-01T21:09:29.401Z,99884.13
2022-12-01T21:12:26.016Z,99887.03
2022-12-01T21:15:03.447Z,99886.00
2022-12-01T21:17:36.605Z,99886.84
2022-12-01T21:20:18.080Z,99888.25
2022-12-01T21:22:47.342Z,99880.47
2022-12-01T21:25:22.281Z,99882.78
2022-12-01T21:27:51.311Z,99888.75
2022-12-01T21:30:22.020Z,99882.50
2022-12-01T21:32:51.090Z,99882.81
2022-12-01T21:35:21.808Z,99884.66
2022-12-01T21:37:51.943Z,99890.34
2022-12-01T21:40:23.939Z,99886.16
2022-12-01T21:42:52.940Z,99884.59
2022-12-01T21:45:27.100Z,99894.50
2022-12-01T21:48:01.344Z,99897.44
2022-12-01T21:50:30.216Z,99900.19
2022-12-01T21:52:59.170Z,99891.88
2022-12-01T21:55:40.269Z,99884.47
2022-12-01T21:58:24.876Z,99883.16
2022-12-01T22:00:55.508Z,99884.66
2022-12-01T22:03:33.135Z,99891.22
2022-12-01T22:06:29.790Z,99883.94
2022-12-01T22:09:02.973Z,99886.25
2022-12-01T22:11:33.134Z,99882.72
2022-12-01T22:14:12.057Z,99880.06
2022-12-01T22:16:43.976Z,99876.09
2022-12-01T22:19:27.282Z,99879.00
2022-12-01T22:22:01.629Z,99882.25
2022-12-01T22:24:35.999Z,99880.75
2022-12-01T22:27:16.914Z,99871.28
2022-12-01T22:29:47.335Z,99866.66
2022-12-01T22:32:34.998Z,99880.66
2022-12-01T22:35:29.723Z,99876.38
2022-12-01T22:38:12.231Z,99873.91
2022-12-01T22:40:44.025Z,99870.88
2022-12-01T22:43:33.369Z,99873.63
2022-12-01T22:46:25.042Z,99864.81
2022-12-01T22:48:55.719Z,99867.34
2022-12-01T22:51:40.576Z,99867.53
2022-12-01T22:54:33.448Z,99865.91
2022-12-01T22:57:14.172Z,99871.56
2022-12-01T22:59:47.769Z,99869.16
2022-12-01T23:02:22.411Z,99869.28
2022-12-01T23:04:56.806Z,99864.28
2022-12-01T23:07:31.663Z,99862.16
2022-12-01T23:10:14.143Z,99866.19
2022-12-01T23:12:43.449Z,99861.84
2022-12-01T23:15:26.687Z,99858.19
2022-12-01T23:17:55.181Z,99858.66
2022-12-01T23:20:31.293Z,99856.03
2022-12-01T23:23:02.167Z,99857.88
2022-12-01T23:25:31.851Z,99859.38
2022-12-01T23:28:02.417Z,99855.63
2022-12-01T23:30:32.743Z,99850.69
2022-12-01T23:33:17.426Z,99846.34
2022-12-01T23:35:49.760Z,99846.31
2022-12-01T23:38:21.278Z,99847.34
2022-12-01T23:40:51.175Z,99845.78
2022-12-01T23:43:22.627Z,99853.69
2022-12-01T23:46:05.376Z,99848.03
2022-12-01T23:48:37.044Z,99846.00
2022-12-01T23:51:12.594Z,99852.88
2022-12-01T23:53:41.759Z,99841.50
2022-12-01T23:56:15.377Z,99842.13
2022-12-01T23:58:44.864Z,99847.44
